Time;durP1;ratioP1;P1;durP2;ratioP2;P2;SDS_P1;SDS_P2;PMS_P1;PMS_P2;Temp;Humidity;BMP_temperature;BMP_pressure;BME280_temperature;BME280_humidity;BME280_pressure;Samples;Min_cycle;Max_cycle;Signal;HPM_P1;HPM_P2
2022/12/28 00:01:11;;;;;;;;;;;;;;;11.31;54.00;100658.31;5071181;28;19908;-36
2022/12/28 00:03:37;;;;;;;;;;;;;;;11.57;53.16;100662.28;5071150;28;20328;-37
2022/12/28 00:06:03;;;;;;;;;;;;;;;11.45;54.03;100661.13;5071480;28;19912;-37
2022/12/28 00:08:28;;;;;;;;;;;;;;;11.54;53.27;100665.34;5071922;28;19908;-36
2022/12/28 00:10:59;;;;;;;;;;;;;;;11.47;53.45;100673.25;5071373;28;19909;-37
2022/12/28 00:13:24;;;;;;;;;;;;;;;11.07;54.25;100667.41;5071746;28;19915;-40
2022/12/28 00:15:49;;;;;;;;;;;;;;;11.31;53.24;100665.47;5071254;28;20288;-36
2022/12/28 00:18:15;;;;;;;;;;;;;;;11.61;52.70;100666.22;5070620;28;19978;-37
2022/12/28 00:20:40;;;;;;;;;;;;;;;11.40;52.71;100672.31;5070757;28;19908;-37
2022/12/28 00:23:05;;;;;;;;;;;;;;;11.41;52.20;100668.66;5070928;28;19974;-37
2022/12/28 00:25:33;;;;;;;;;;;;;;;11.64;52.37;100665.03;5070759;28;20279;-37
2022/12/28 00:27:58;;;;;;;;;;;;;;;11.43;52.40;100665.81;5070851;28;20489;-37
2022/12/28 00:30:24;;;;;;;;;;;;;;;11.46;52.23;100670.75;5070827;28;19964;-38
2022/12/28 00:32:49;;;;;;;;;;;;;;;11.51;52.04;100668.38;5070499;28;19919;-37
2022/12/28 00:35:14;;;;;;;;;;;;;;;11.45;51.58;100664.59;5070743;28;20352;-37
2022/12/28 00:37:39;;;;;;;;;;;;;;;11.45;51.63;100664.59;5070519;28;20007;-38
2022/12/28 00:40:05;;;;;;;;;;;;;;;11.33;51.68;100650.13;5070705;28;20364;-38
2022/12/28 00:42:30;;;;;;;;;;;;;;;11.50;50.97;100672.88;5070685;28;19952;-36
2022/12/28 00:44:55;;;;;;;;;;;;;;;11.31;51.83;100671.63;5070923;28;19908;-37
2022/12/28 00:47:21;;;;;;;;;;;;;;;11.33;51.26;100674.94;5070429;28;20433;-37
2022/12/28 00:49:46;;;;;;;;;;;;;;;11.63;50.73;100671.38;5070379;28;20023;-37
2022/12/28 00:52:11;;;;;;;;;;;;;;;11.57;51.87;100688.94;5070631;28;19909;-37
2022/12/28 00:54:37;;;;;;;;;;;;;;;11.44;50.49;100681.63;5069808;28;19908;-38
2022/12/28 00:57:02;;;;;;;;;;;;;;;11.42;50.61;100674.81;5069957;28;20362;-37
2022/12/28 00:59:27;;;;;;;;;;;;;;;11.47;51.03;100681.25;5070415;28;19916;-37
2022/12/28 01:01:52;;;;;;;;;;;;;;;11.74;49.97;100673.56;5070525;28;19912;-37
2022/12/28 01:04:18;;;;;;;;;;;;;;;11.54;49.29;100678.66;5070265;28;20441;-37
2022/12/28 01:06:43;;;;;;;;;;;;;;;11.62;49.61;100683.88;5070583;28;19908;-37
2022/12/28 01:09:08;;;;;;;;;;;;;;;11.99;48.32;100679.38;5070714;28;19916;-36
2022/12/28 01:11:33;;;;;;;;;;;;;;;11.94;49.13;100684.47;5070356;28;19919;-37
2022/12/28 01:14:00;;;;;;;;;;;;;;;11.87;49.36;100687.03;5070610;28;19916;-37
2022/12/28 01:16:32;;;;;;;;;;;;;;;11.70;49.88;100680.28;5070680;28;20269;-38
2022/12/28 01:18:59;;;;;;;;;;;;;;;11.55;49.64;100680.31;5070547;28;19920;-36
2022/12/28 01:21:26;;;;;;;;;;;;;;;11.59;49.10;100675.44;5070647;28;19946;-37
2022/12/28 01:23:55;;;;;;;;;;;;;;;11.46;49.86;100678.75;5070476;28;19985;-37
2022/12/28 01:26:21;;;;;;;;;;;;;;;11.52;49.25;100683.38;5070652;28;19908;-36
2022/12/28 01:28:46;;;;;;;;;;;;;;;11.72;49.57;100688.91;5070506;28;19920;-37
2022/12/28 01:31:13;;;;;;;;;;;;;;;11.76;49.27;100689.38;5070461;28;20003;-37
2022/12/28 01:33:38;;;;;;;;;;;;;;;11.80;48.37;100677.31;5070516;28;19931;-36
2022/12/28 01:36:04;;;;;;;;;;;;;;;11.78;48.53;100682.00;5070507;28;20348;-36
2022/12/28 01:38:30;;;;;;;;;;;;;;;11.71;49.34;100680.09;5070569;28;19912;-36
2022/12/28 01:40:55;;;;;;;;;;;;;;;11.80;48.08;100680.78;5070292;28;20249;-37
2022/12/28 01:43:34;;;;;;;;;;;;;;;11.77;47.29;100681.19;5070472;28;20053;-36
2022/12/28 01:45:59;;;;;;;;;;;;;;;11.85;47.31;100672.25;5070747;28;19951;-36
2022/12/28 01:48:25;;;;;;;;;;;;;;;11.81;47.43;100665.63;5070334;28;19951;-36
2022/12/28 01:50:50;;;;;;;;;;;;;;;11.45;47.25;100675.28;5070327;28;20338;-36
2022/12/28 01:53:16;;;;;;;;;;;;;;;11.66;47.17;100677.16;5070591;28;19915;-36
2022/12/28 01:55:42;;;;;;;;;;;;;;;11.69;47.79;100674.13;5070336;28;19908;-36
2022/12/28 01:58:13;;;;;;;;;;;;;;;11.69;46.60;100667.94;5070113;28;19965;-36
2022/12/28 02:00:39;;;;;;;;;;;;;;;11.85;46.13;100667.72;5070761;28;19908;-36
2022/12/28 02:03:10;;;;;;;;;;;;;;;11.86;45.95;100671.22;5070436;28;20328;-36
2022/12/28 02:05:37;;;;;;;;;;;;;;;11.82;45.68;100672.59;5070285;28;20376;-37
2022/12/28 02:08:12;;;;;;;;;;;;;;;11.59;46.27;100681.56;5073820;28;19971;-37
2022/12/28 02:10:39;;;;;;;;;;;;;;;11.25;46.80;100676.84;5075056;28;19912;-36
2022/12/28 02:13:05;;;;;;;;;;;;;;;11.40;46.97;100674.19;5074448;28;19915;-38
2022/12/28 02:15:30;;;;;;;;;;;;;;;11.58;46.33;100671.94;5074002;28;19967;-38
2022/12/28 02:17:56;;;;;;;;;;;;;;;11.48;46.55;100676.72;5073762;28;19999;-37
2022/12/28 02:20:24;;;;;;;;;;;;;;;11.39;46.82;100677.88;5073765;28;19979;-37
2022/12/28 02:23:08;;;;;;;;;;;;;;;11.62;45.83;100680.41;5074141;28;20393;-38
2022/12/28 02:25:51;;;;;;;;;;;;;;;11.39;46.02;100673.34;5074229;28;20004;-38
2022/12/28 02:28:22;;;;;;;;;;;;;;;11.60;45.72;100669.09;5074083;28;19908;-37
2022/12/28 02:31:07;;;;;;;;;;;;;;;11.34;46.31;100673.09;5073492;28;19912;-38
2022/12/28 02:33:43;;;;;;;;;;;;;;;11.37;46.57;100669.25;5062480;28;19912;-38
2022/12/28 02:36:31;;;;;;;;;;;;;;;11.64;45.40;100663.19;5073623;28;20510;-38
2022/12/28 02:39:06;;;;;;;;;;;;;;;11.46;46.06;100670.75;5073069;28;19908;-37
2022/12/28 02:41:33;;;;;;;;;;;;;;;11.53;45.16;100655.69;5073723;28;19912;-38
2022/12/28 02:43:59;;;;;;;;;;;;;;;11.57;45.18;100653.47;5072868;28;20393;-38
2022/12/28 02:52:03;;;;;;;;;;;;;;;11.34;45.99;100657.91;5073381;28;20603;-37
2022/12/28 02:57:40;;;;;;;;;;;;;;;11.17;45.02;100653.78;5073273;28;19973;-37
2022/12/28 03:00:07;;;;;;;;;;;;;;;11.18;45.24;100647.47;5073019;28;19908;-37
2022/12/28 03:02:36;;;;;;;;;;;;;;;11.20;44.25;100644.63;5073122;28;19908;-36
2022/12/28 03:05:12;;;;;;;;;;;;;;;11.47;43.64;100651.09;5072568;28;19908;-36
2022/12/28 03:10:33;;;;;;;;;;;;;;;11.47;43.45;100648.44;5072725;28;20065;-37
2022/12/28 03:13:03;;;;;;;;;;;;;;;11.23;43.37;100644.25;5072701;28;19904;-37
2022/12/28 03:15:32;;;;;;;;;;;;;;;11.17;44.67;100656.47;5072806;28;20376;-36
2022/12/28 03:31:56;;;;;;;;;;;;;;;11.27;45.20;100664.16;5072527;28;19915;-36
2022/12/28 03:34:22;;;;;;;;;;;;;;;11.08;44.20;100663.75;5072301;28;19908;-37
2022/12/28 03:36:47;;;;;;;;;;;;;;;11.45;45.17;100661.13;5072069;28;19916;-37
2022/12/28 03:39:22;;;;;;;;;;;;;;;11.39;44.23;100670.69;5072206;28;19920;-37
2022/12/28 03:41:51;;;;;;;;;;;;;;;11.00;44.80;100660.34;5071806;28;19909;-37
2022/12/28 03:44:22;;;;;;;;;;;;;;;10.86;45.64;100664.66;5069217;28;19932;-37
2022/12/28 03:46:47;;;;;;;;;;;;;;;10.83;45.27;100659.69;5072064;28;19916;-37
2022/12/28 03:49:13;;;;;;;;;;;;;;;10.91;44.65;100665.75;5071862;28;20009;-36
2022/12/28 03:51:39;;;;;;;;;;;;;;;10.88;45.62;100642.16;5071572;28;19909;-37
2022/12/28 03:54:04;;;;;;;;;;;;;;;11.06;44.99;100673.75;5071876;28;19915;-36
2022/12/28 03:56:29;;;;;;;;;;;;;;;11.34;43.88;100670.41;5071641;28;19908;-37
2022/12/28 03:58:56;;;;;;;;;;;;;;;11.20;44.23;100673.94;5071761;28;20011;-37
2022/12/28 04:01:21;;;;;;;;;;;;;;;11.23;44.82;100674.41;5071909;28;19965;-37
2022/12/28 04:03:46;;;;;;;;;;;;;;;11.53;43.35;100669.00;5071787;28;19908;-37
2022/12/28 04:06:14;;;;;;;;;;;;;;;11.12;44.86;100673.00;5071369;28;19991;-42
2022/12/28 04:08:40;;;;;;;;;;;;;;;11.12;44.09;100648.22;5071263;28;19908;-42
2022/12/28 04:11:05;;;;;;;;;;;;;;;11.06;44.78;100683.56;5071265;28;19927;-42
2022/12/28 04:13:30;;;;;;;;;;;;;;;11.01;45.73;100693.97;5071096;28;19934;-42
2022/12/28 04:16:00;;;;;;;;;;;;;;;11.20;44.73;100688.06;5071440;28;19912;-42
2022/12/28 04:18:25;;;;;;;;;;;;;;;11.48;44.46;100688.25;5071271;28;19921;-42
2022/12/28 04:20:50;;;;;;;;;;;;;;;11.27;43.77;100694.31;5071573;28;19919;-44
2022/12/28 04:23:16;;;;;;;;;;;;;;;11.17;45.56;100693.75;5071558;28;20394;-43
2022/12/28 04:25:41;;;;;;;;;;;;;;;11.18;45.18;100690.09;5071531;28;19915;-42
2022/12/28 04:28:06;;;;;;;;;;;;;;;11.45;44.00;100690.44;5071358;28;19909;-43
2022/12/28 04:30:32;;;;;;;;;;;;;;;11.51;44.48;100695.03;5071303;28;19913;-43
2022/12/28 04:32:57;;;;;;;;;;;;;;;11.55;44.37;100691.78;5071293;28;19915;-43
2022/12/28 04:35:22;;;;;;;;;;;;;;;11.30;44.67;100693.13;5070955;28;19973;-43
2022/12/28 04:37:47;;;;;;;;;;;;;;;11.44;44.38;100702.09;5070754;28;19909;-43
2022/12/28 04:40:13;;;;;;;;;;;;;;;11.37;44.44;100695.88;5070957;28;19931;-43
2022/12/28 04:42:38;;;;;;;;;;;;;;;11.38;44.18;100702.84;5070858;28;19908;-43
2022/12/28 04:45:03;;;;;;;;;;;;;;;11.63;44.48;100701.53;5071168;28;19991;-43
2022/12/28 04:47:29;;;;;;;;;;;;;;;11.24;45.00;100701.84;5071394;28;20287;-43
2022/12/28 04:49:54;;;;;;;;;;;;;;;11.52;46.30;100702.84;5070591;28;20399;-43
2022/12/28 04:52:21;;;;;;;;;;;;;;;11.64;43.92;100700.50;5070691;28;20394;-43
2022/12/28 04:54:46;;;;;;;;;;;;;;;11.65;43.89;100701.34;5070601;28;19908;-43
2022/12/28 04:57:12;;;;;;;;;;;;;;;11.63;44.15;100703.38;5070337;28;19935;-43
2022/12/28 04:59:39;;;;;;;;;;;;;;;11.62;44.00;100705.22;5070347;28;20051;-43
2022/12/28 05:02:04;;;;;;;;;;;;;;;11.73;43.07;100706.56;5069969;28;19934;-44
2022/12/28 05:04:29;;;;;;;;;;;;;;;11.51;43.61;100713.69;5070237;28;20447;-42
2022/12/28 05:06:54;;;;;;;;;;;;;;;11.52;44.05;100713.50;5070426;28;19916;-44
2022/12/28 05:09:20;;;;;;;;;;;;;;;11.65;43.92;100712.00;5070254;28;20270;-43
2022/12/28 05:11:45;;;;;;;;;;;;;;;11.47;44.51;100720.41;5070283;28;19970;-43
2022/12/28 05:14:10;;;;;;;;;;;;;;;11.69;43.84;100721.28;5070231;28;20260;-42
2022/12/28 05:16:36;;;;;;;;;;;;;;;11.74;43.69;100729.53;5070639;28;19969;-43
2022/12/28 05:19:01;;;;;;;;;;;;;;;11.41;44.76;100723.81;5070156;28;19995;-43
2022/12/28 05:21:27;;;;;;;;;;;;;;;11.51;44.63;100727.81;5070402;28;19909;-42
2022/12/28 05:23:53;;;;;;;;;;;;;;;11.55;44.33;100725.63;5070613;28;19924;-44
2022/12/28 05:26:20;;;;;;;;;;;;;;;11.31;45.59;100727.59;5070451;28;20284;-43
2022/12/28 05:28:46;;;;;;;;;;;;;;;11.42;45.64;100730.78;5070424;28;19908;-43
2022/12/28 05:31:21;;;;;;;;;;;;;;;11.20;45.65;100735.22;5070656;28;19981;-42
2022/12/28 05:33:46;;;;;;;;;;;;;;;11.24;46.20;100741.81;5070514;28;19909;-43
2022/12/28 05:36:14;;;;;;;;;;;;;;;11.39;46.80;100745.31;5070100;28;20276;-43
2022/12/28 05:38:39;;;;;;;;;;;;;;;11.44;46.85;100736.75;5070108;28;19999;-44
2022/12/28 05:41:05;;;;;;;;;;;;;;;11.17;46.60;100743.56;5070972;28;19944;-43
2022/12/28 05:43:30;;;;;;;;;;;;;;;11.24;47.06;100747.97;5074790;28;20003;-43
2022/12/28 05:45:59;;;;;;;;;;;;;;;10.95;47.84;100746.94;5074328;28;19908;-44
2022/12/28 05:48:24;;;;;;;;;;;;;;;11.11;47.04;100750.44;5073927;28;19951;-43
2022/12/28 05:50:49;;;;;;;;;;;;;;;11.42;46.26;100757.44;5073698;28;19956;-43
2022/12/28 05:53:15;;;;;;;;;;;;;;;11.29;46.82;100755.41;5074045;28;20451;-41
2022/12/28 05:55:40;;;;;;;;;;;;;;;11.22;47.12;100755.31;5073364;28;19956;-43
2022/12/28 05:58:07;;;;;;;;;;;;;;;11.30;47.32;100760.56;5073171;28;20287;-43
2022/12/28 06:00:32;;;;;;;;;;;;;;;11.28;48.09;100764.44;5073138;28;20011;-44
2022/12/28 06:02:57;;;;;;;;;;;;;;;11.12;49.14;100760.94;5073061;28;20319;-44
2022/12/28 06:05:23;;;;;;;;;;;;;;;11.13;48.88;100767.88;5073414;28;19912;-43
2022/12/28 06:07:50;;;;;;;;;;;;;;;11.20;48.90;100765.34;5073114;28;19908;-43
2022/12/28 06:10:15;;;;;;;;;;;;;;;11.30;49.35;100765.88;5072948;28;19917;-44
2022/12/28 06:12:41;;;;;;;;;;;;;;;11.28;49.11;100759.91;5073253;28;20060;-44
2022/12/28 06:15:06;;;;;;;;;;;;;;;10.96;50.21;100759.22;5073083;28;20389;-42
2022/12/28 06:17:31;;;;;;;;;;;;;;;11.16;49.29;100764.06;5073215;28;19913;-43
2022/12/28 06:19:57;;;;;;;;;;;;;;;11.09;49.55;100768.44;5072783;28;20292;-43
2022/12/28 06:22:22;;;;;;;;;;;;;;;11.19;49.71;100769.00;5073359;28;19920;-43
2022/12/28 06:24:47;;;;;;;;;;;;;;;11.25;49.05;100772.78;5073212;28;19913;-43
2022/12/28 06:27:13;;;;;;;;;;;;;;;11.38;48.96;100772.16;5074300;28;20406;-43
2022/12/28 06:29:38;;;;;;;;;;;;;;;11.40;49.42;100780.78;5073139;28;19912;-43
2022/12/28 06:32:03;;;;;;;;;;;;;;;11.32;49.25;100771.03;5072598;28;19982;-44
2022/12/28 06:34:29;;;;;;;;;;;;;;;11.53;49.60;100783.63;5072944;28;19908;-42
2022/12/28 06:36:55;;;;;;;;;;;;;;;11.57;48.77;100774.25;5072639;28;20352;-42
2022/12/28 06:39:20;;;;;;;;;;;;;;;11.33;48.96;100781.53;5072794;28;20356;-42
2022/12/28 06:41:46;;;;;;;;;;;;;;;11.45;48.68;100779.22;5072722;28;19908;-43
2022/12/28 06:44:12;;;;;;;;;;;;;;;11.34;48.38;100777.00;5072455;28;20042;-43
2022/12/28 06:46:37;;;;;;;;;;;;;;;11.47;47.94;100774.53;5072550;28;19909;-42
2022/12/28 06:49:03;;;;;;;;;;;;;;;11.52;47.56;100774.00;5072661;28;19973;-45
2022/12/28 06:51:35;;;;;;;;;;;;;;;11.42;47.59;100782.25;5073681;28;19908;-45
2022/12/28 06:54:00;;;;;;;;;;;;;;;11.80;47.14;100781.31;5072347;28;19957;-43
2022/12/28 06:56:27;;;;;;;;;;;;;;;11.63;47.30;100780.69;5072562;28;19915;-43
2022/12/28 06:58:52;;;;;;;;;;;;;;;11.79;46.92;100787.66;5072624;28;19912;-43
2022/12/28 07:01:19;;;;;;;;;;;;;;;11.49;47.01;100783.16;5072574;28;20299;-42
2022/12/28 07:03:45;;;;;;;;;;;;;;;11.69;47.01;100791.44;5072297;28;19912;-43
2022/12/28 07:06:11;;;;;;;;;;;;;;;11.70;46.94;100797.59;5072553;28;19915;-44
2022/12/28 07:08:36;;;;;;;;;;;;;;;11.42;48.87;100802.75;5072435;28;20379;-44
2022/12/28 07:11:03;;;;;;;;;;;;;;;11.51;49.65;100806.97;5072143;28;19921;-43
2022/12/28 07:13:28;;;;;;;;;;;;;;;11.27;50.93;100808.91;5072067;28;20552;-43
2022/12/28 07:15:53;;;;;;;;;;;;;;;11.34;51.35;100811.66;5072019;28;19912;-43
2022/12/28 07:18:19;;;;;;;;;;;;;;;11.41;51.27;100819.75;5071847;28;20410;-44
2022/12/28 07:20:44;;;;;;;;;;;;;;;10.72;53.43;100824.19;5071977;28;19908;-44
2022/12/28 07:23:09;;;;;;;;;;;;;;;10.57;54.17;100828.63;5071852;28;19920;-42
2022/12/28 07:25:35;;;;;;;;;;;;;;;10.30;54.63;100838.78;5071919;28;19943;-45
2022/12/28 07:28:00;;;;;;;;;;;;;;;10.30;54.24;100840.56;5071990;28;19955;-43
2022/12/28 07:30:25;;;;;;;;;;;;;;;10.50;53.77;100840.97;5071536;28;19913;-43
2022/12/28 07:32:50;;;;;;;;;;;;;;;10.84;53.54;100837.09;5071626;28;19982;-42
2022/12/28 07:35:16;;;;;;;;;;;;;;;10.89;53.14;100838.22;5071484;28;20388;-43
2022/12/28 07:37:41;;;;;;;;;;;;;;;11.19;52.12;100837.44;5071557;28;19987;-42
2022/12/28 07:40:07;;;;;;;;;;;;;;;11.10;52.07;100834.88;5071415;28;19909;-43
2022/12/28 07:42:32;;;;;;;;;;;;;;;11.37;59.13;100845.13;5070990;28;20296;-41
2022/12/28 07:44:57;;;;;;;;;;;;;;;11.57;51.44;100840.91;5070494;28;19912;-41
2022/12/28 07:47:22;;;;;;;;;;;;;;;11.58;51.48;100847.91;5072095;28;20322;-38
2022/12/28 07:49:48;;;;;;;;;;;;;;;11.10;52.49;100856.19;5071974;28;20321;-37
2022/12/28 07:52:13;;;;;;;;;;;;;;;11.31;52.49;100852.00;5071436;28;20464;-37
2022/12/28 07:54:38;;;;;;;;;;;;;;;11.17;52.76;100853.63;5071474;28;19988;-36
2022/12/28 07:57:03;;;;;;;;;;;;;;;11.49;52.76;100860.47;5070753;28;19912;-36
2022/12/28 07:59:29;;;;;;;;;;;;;;;11.22;52.36;100861.09;5070002;28;19915;-37
2022/12/28 08:01:54;;;;;;;;;;;;;;;11.05;53.78;100866.53;5070312;28;20414;-36
2022/12/28 08:04:19;;;;;;;;;;;;;;;10.84;53.16;100861.88;5069905;28;20197;-37
2022/12/28 08:06:45;;;;;;;;;;;;;;;10.95;53.58;100866.78;5070280;28;19908;-37
2022/12/28 08:09:12;;;;;;;;;;;;;;;11.02;53.77;100876.72;5069832;28;20434;-36
2022/12/28 08:11:39;;;;;;;;;;;;;;;11.19;52.81;100880.91;5069812;28;19994;-37
2022/12/28 08:14:05;;;;;;;;;;;;;;;11.18;53.30;100884.59;5069884;28;19912;-37
2022/12/28 08:16:32;;;;;;;;;;;;;;;10.81;54.59;100883.53;5069850;28;19908;-37
2022/12/28 08:18:58;;;;;;;;;;;;;;;10.83;54.50;100884.16;5069733;28;20453;-34
2022/12/28 08:21:27;;;;;;;;;;;;;;;10.82;54.68;100884.38;5069640;28;19999;-36
2022/12/28 08:23:52;;;;;;;;;;;;;;;10.70;55.45;100892.78;5069803;28;19909;-37
2022/12/28 08:26:19;;;;;;;;;;;;;;;10.45;56.15;100899.22;5069701;28;19916;-36
2022/12/28 08:28:45;;;;;;;;;;;;;;;10.11;57.59;100895.88;5069736;28;19919;-36
2022/12/28 08:31:12;;;;;;;;;;;;;;;10.49;55.89;100898.72;5069554;28;20293;-37
2022/12/28 08:33:37;;;;;;;;;;;;;;;10.41;55.75;100904.06;5069798;28;19957;-37
2022/12/28 08:36:03;;;;;;;;;;;;;;;10.39;55.87;100911.38;5069974;28;19987;-37
2022/12/28 08:38:29;;;;;;;;;;;;;;;10.34;56.45;100913.75;5069625;28;20012;-36
2022/12/28 08:40:58;;;;;;;;;;;;;;;10.22;57.06;100907.13;5069904;28;19923;-37
2022/12/28 08:43:24;;;;;;;;;;;;;;;10.26;56.29;100916.41;5069844;28;19908;-36
2022/12/28 08:45:59;;;;;;;;;;;;;;;10.44;56.14;100910.88;5070064;28;19912;-36
2022/12/28 08:48:25;;;;;;;;;;;;;;;10.37;56.54;100914.22;5068384;28;19942;-37
2022/12/28 08:50:50;;;;;;;;;;;;;;;10.47;56.35;100908.72;5069573;28;20307;-35
2022/12/28 08:53:15;;;;;;;;;;;;;;;10.27;55.91;100904.78;5069646;28;19919;-37
2022/12/28 08:55:41;;;;;;;;;;;;;;;10.35;55.52;100904.75;5069440;28;19995;-37
2022/12/28 08:58:06;;;;;;;;;;;;;;;10.63;55.49;100912.28;5069427;28;20395;-38
2022/12/28 09:00:31;;;;;;;;;;;;;;;10.44;55.22;100917.03;5069193;28;19916;-36
2022/12/28 09:03:00;;;;;;;;;;;;;;;10.46;55.99;100925.66;5069276;28;19930;-36
2022/12/28 09:05:25;;;;;;;;;;;;;;;10.51;55.46;100925.16;5069012;28;19931;-37
2022/12/28 09:07:51;;;;;;;;;;;;;;;10.63;55.64;100923.75;5068919;28;19912;-37
2022/12/28 09:10:16;;;;;;;;;;;;;;;10.63;55.49;100926.41;5068944;28;19974;-36
2022/12/28 09:12:42;;;;;;;;;;;;;;;10.34;57.33;100913.75;5068978;28;19943;-36
2022/12/28 09:15:07;;;;;;;;;;;;;;;10.14;58.18;100919.44;5068869;28;20399;-37
2022/12/28 09:17:32;;;;;;;;;;;;;;;10.43;56.99;100925.19;5068835;28;19927;-37
2022/12/28 09:19:58;;;;;;;;;;;;;;;10.62;56.73;100931.91;5070096;28;19940;-37
2022/12/28 09:22:23;;;;;;;;;;;;;;;10.50;57.52;100924.31;5069892;28;20007;-37
2022/12/28 09:24:48;;;;;;;;;;;;;;;11.01;62.12;100931.84;5068107;28;19990;-37
2022/12/28 09:27:14;;;;;;;;;;;;;;;11.72;65.18;100929.72;5069513;28;20319;-36
2022/12/28 09:29:39;;;;;;;;;;;;;;;11.99;56.23;100927.47;5070130;28;20007;-36
2022/12/28 09:32:04;;;;;;;;;;;;;;;11.65;56.48;100931.47;5070162;28;19908;-37
2022/12/28 09:34:30;;;;;;;;;;;;;;;11.14;57.37;100926.75;5069550;28;19908;-37
2022/12/28 09:36:56;;;;;;;;;;;;;;;11.46;55.87;100921.31;5069821;28;19916;-37
2022/12/28 09:39:23;;;;;;;;;;;;;;;10.94;58.42;100914.91;5070007;28;19908;-37
2022/12/28 09:41:51;;;;;;;;;;;;;;;10.67;59.71;100910.91;5070114;28;19908;-36
2022/12/28 09:44:17;;;;;;;;;;;;;;;10.36;61.27;100911.75;5069990;28;19908;-37
2022/12/28 09:46:46;;;;;;;;;;;;;;;10.64;61.72;100911.25;5069643;28;19914;-37
2022/12/28 09:49:14;;;;;;;;;;;;;;;10.52;61.43;100906.31;5069759;28;19918;-37
2022/12/28 09:51:43;;;;;;;;;;;;;;;10.71;61.72;100901.56;5069863;28;19908;-37
2022/12/28 09:54:08;;;;;;;;;;;;;;;10.81;61.92;100906.66;5069649;28;19909;-37
2022/12/28 09:56:35;;;;;;;;;;;;;;;10.53;62.42;100899.19;5069518;28;19986;-37
2022/12/28 09:59:02;;;;;;;;;;;;;;;10.63;61.80;100901.63;5069614;28;20358;-36
2022/12/28 10:01:28;;;;;;;;;;;;;;;10.47;62.68;100895.41;5069732;28;19916;-36
2022/12/28 10:03:54;;;;;;;;;;;;;;;10.72;61.89;100892.59;5069746;28;19913;-38
2022/12/28 10:06:21;;;;;;;;;;;;;;;11.13;61.25;100886.94;5069959;28;19914;-36
2022/12/28 10:08:54;;;;;;;;;;;;;;;11.46;59.79;100882.19;5069865;28;19958;-37
2022/12/28 10:11:39;;;;;;;;;;;;;;;10.74;61.11;100879.94;5070292;28;19908;-37
2022/12/28 10:14:16;;;;;;;;;;;;;;;10.91;59.85;100884.13;5069490;28;19935;-37
2022/12/28 10:16:41;;;;;;;;;;;;;;;10.76;61.16;100886.72;5069728;28;20007;-37
2022/12/28 10:19:07;;;;;;;;;;;;;;;10.71;60.86;100881.09;5069504;28;20432;-37
2022/12/28 10:21:32;;;;;;;;;;;;;;;10.82;61.73;100885.19;5070128;28;20370;-37
2022/12/28 10:23:57;;;;;;;;;;;;;;;11.06;60.36;100876.19;5069523;28;19908;-36
2022/12/28 10:26:23;;;;;;;;;;;;;;;10.60;61.20;100883.34;5069837;28;19908;-36
2022/12/28 10:28:52;;;;;;;;;;;;;;;10.54;62.47;100883.03;5072310;28;19908;-36
2022/12/28 10:31:30;;;;;;;;;;;;;;;10.15;63.75;100883.88;5073263;28;20108;-37
2022/12/28 10:33:55;;;;;;;;;;;;;;;10.30;62.58;100880.47;5073480;28;19908;-37
2022/12/28 10:36:20;;;;;;;;;;;;;;;10.27;62.63;100879.00;5073569;28;19911;-36
2022/12/28 10:38:54;;;;;;;;;;;;;;;10.56;62.49;100881.00;5073156;28;20303;-37
2022/12/28 10:41:19;;;;;;;;;;;;;;;10.39;62.20;100878.63;5073664;28;19908;-37
2022/12/28 10:43:47;;;;;;;;;;;;;;;10.32;61.86;100875.84;5073416;28;19966;-37
2022/12/28 10:46:20;;;;;;;;;;;;;;;10.30;61.34;100867.16;5073479;28;20368;-37
2022/12/28 10:48:50;;;;;;;;;;;;;;;10.34;60.69;100839.25;5073105;28;19916;-37
2022/12/28 10:51:17;;;;;;;;;;;;;;;10.66;60.28;100862.19;5073163;28;19923;-37
2022/12/28 10:53:44;;;;;;;;;;;;;;;10.49;60.59;100866.78;5073335;28;19909;-37
2022/12/28 10:56:10;;;;;;;;;;;;;;;10.61;59.14;100856.53;5073298;28;20364;-36
2022/12/28 10:58:35;;;;;;;;;;;;;;;10.51;59.52;100845.31;5073341;28;19915;-40
2022/12/28 11:01:03;;;;;;;;;;;;;;;10.34;60.94;100855.22;5074172;28;20590;-37
2022/12/28 11:03:30;;;;;;;;;;;;;;;10.34;60.66;100855.22;5072935;28;20000;-36
2022/12/28 11:06:14;;;;;;;;;;;;;;;10.75;60.45;100865.59;5072965;28;19908;-35
2022/12/28 11:08:40;;;;;;;;;;;;;;;10.51;60.03;100866.59;5072514;28;19908;-36
2022/12/28 11:11:06;;;;;;;;;;;;;;;10.25;61.51;100870.34;5072182;28;19967;-37
2022/12/28 11:13:31;;;;;;;;;;;;;;;10.15;63.05;100854.59;5072369;28;19947;-37
2022/12/28 11:15:58;;;;;;;;;;;;;;;10.43;62.21;100866.63;5071555;28;19912;-37
2022/12/28 11:18:24;;;;;;;;;;;;;;;10.87;61.98;100856.22;5059411;28;20488;-36
2022/12/28 11:20:52;;;;;;;;;;;;;;;10.71;62.47;100861.63;5052651;28;19991;-36
2022/12/28 11:23:22;;;;;;;;;;;;;;;10.62;62.97;100868.84;5060874;28;19909;-36
2022/12/28 11:25:48;;;;;;;;;;;;;;;10.85;63.19;100868.88;5072430;28;19908;-36
2022/12/28 11:28:22;;;;;;;;;;;;;;;10.59;64.12;100865.72;5071971;28;19936;-36
2022/12/28 11:30:48;;;;;;;;;;;;;;;10.75;64.20;100869.09;5072030;28;19999;-37
2022/12/28 11:33:32;;;;;;;;;;;;;;;10.64;64.62;100863.34;5071873;28;20062;-37
2022/12/28 11:35:59;;;;;;;;;;;;;;;11.21;64.49;100857.56;5072218;28;19939;-37
2022/12/28 11:38:41;;;;;;;;;;;;;;;11.22;64.26;100861.09;5071955;28;19954;-37
2022/12/28 11:41:11;;;;;;;;;;;;;;;11.40;62.08;100869.56;5071755;28;19959;-36
2022/12/28 11:43:40;;;;;;;;;;;;;;;11.14;61.23;100865.47;5071680;28;19912;-36
2022/12/28 11:46:20;;;;;;;;;;;;;;;11.28;60.28;100855.84;5072054;28;20367;-37
2022/12/28 11:48:57;;;;;;;;;;;;;;;11.07;61.63;100871.69;5071792;28;19998;-37
2022/12/28 11:51:27;;;;;;;;;;;;;;;10.64;63.77;100863.34;5071859;28;19916;-37
2022/12/28 11:53:56;;;;;;;;;;;;;;;11.02;61.80;100861.56;5071554;28;19909;-36
2022/12/28 11:56:22;;;;;;;;;;;;;;;11.08;61.94;100862.69;5072108;28;19908;-36
2022/12/28 11:58:47;;;;;;;;;;;;;;;11.03;63.50;100855.25;5071089;28;20353;-36
2022/12/28 12:01:39;;;;;;;;;;;;;;;11.14;62.42;100848.66;5071620;28;19966;-37
2022/12/28 12:04:05;;;;;;;;;;;;;;;11.13;62.53;100844.31;5071339;28;19912;-37
2022/12/28 12:06:42;;;;;;;;;;;;;;;11.01;63.13;100854.59;5071427;28;19916;-36
2022/12/28 12:09:20;;;;;;;;;;;;;;;10.74;63.84;100853.31;5071100;28;19909;-37
2022/12/28 12:11:46;;;;;;;;;;;;;;;10.75;63.96;100853.09;5071168;28;19908;-38
2022/12/28 12:14:12;;;;;;;;;;;;;;;10.81;63.55;100856.06;5071329;28;19908;-37
2022/12/28 12:17:04;;;;;;;;;;;;;;;10.84;64.13;100851.22;5071183;28;19908;-37
2022/12/28 12:19:32;;;;;;;;;;;;;;;10.92;62.81;100847.66;5068154;28;19978;-36
2022/12/28 12:22:13;;;;;;;;;;;;;;;11.01;63.58;100832.47;5071260;28;19910;-37
2022/12/28 12:24:46;;;;;;;;;;;;;;;11.23;62.89;100834.25;5070997;28;19908;-36
2022/12/28 12:27:14;;;;;;;;;;;;;;;11.16;62.17;100828.00;5070719;28;19958;-37
2022/12/28 12:29:43;;;;;;;;;;;;;;;11.33;62.20;100842.00;5070766;28;19919;-37
2022/12/28 12:32:18;;;;;;;;;;;;;;;11.20;61.58;100831.94;5070991;28;19916;-37
2022/12/28 12:34:45;;;;;;;;;;;;;;;10.83;63.12;100840.75;5070731;28;20328;-37
2022/12/28 12:37:10;;;;;;;;;;;;;;;11.09;63.00;100835.03;5070331;28;19915;-37
2022/12/28 12:39:57;;;;;;;;;;;;;;;11.12;61.90;100837.38;5071284;28;19908;-37
2022/12/28 12:42:28;;;;;;;;;;;;;;;10.70;63.35;100846.66;5070773;28;19908;-36
2022/12/28 12:45:06;;;;;;;;;;;;;;;10.93;63.55;100836.03;5070619;28;19908;-36
2022/12/28 12:47:48;;;;;;;;;;;;;;;10.94;63.54;100835.81;5069522;28;19908;-36
2022/12/28 12:50:16;;;;;;;;;;;;;;;11.02;62.81;100842.91;5070172;28;20307;-36
2022/12/28 12:53:03;;;;;;;;;;;;;;;10.81;64.17;100840.91;5069782;28;19909;-36
2022/12/28 12:55:46;;;;;;;;;;;;;;;10.93;64.27;100836.03;5070772;28;19915;-36
2022/12/28 12:58:14;;;;;;;;;;;;;;;10.87;64.42;100837.56;5070301;28;20003;-37
2022/12/28 13:01:05;;;;;;;;;;;;;;;11.01;63.63;100827.97;5070591;28;19908;-36
2022/12/28 13:03:32;;;;;;;;;;;;;;;10.80;64.46;100836.63;5070815;28;19908;-36